Time;durP1;ratioP1;P1;durP2;ratioP2;P2;SDS_P1;SDS_P2;PMS_P1;PMS_P2;Temp;Humidity;BMP_temperature;BMP_pressure;BME280_temperature;BME280_humidity;BME280_pressure;Samples;Min_cycle;Max_cycle;Signal;HPM_P1;HPM_P2
2022/01/12 00:01:14;;;;;;;62.43;33.00;;;;;;;-2.95;79.62;103294.61;1789327;80;21406;-92
2022/01/12 00:03:46;;;;;;;58.78;31.30;;;;;;;-2.92;79.68;103297.56;1789986;80;21706;-92
2022/01/12 00:06:18;;;;;;;63.58;31.90;;;;;;;-2.91;79.72;103295.90;1784140;80;21042;-93
2022/01/12 00:08:44;;;;;;;67.00;33.98;;;;;;;-2.89;79.70;103291.84;1777511;80;21129;-93
2022/01/12 00:11:11;;;;;;;56.92;30.15;;;;;;;-2.87;79.71;103295.52;1736580;82;21787;-92
2022/01/12 00:13:37;;;;;;;50.12;27.58;;;;;;;-2.84;79.74;103296.81;1779821;80;21790;-92
2022/01/12 00:16:05;;;;;;;61.10;33.23;;;;;;;-2.81;79.79;103302.34;1779537;80;21136;-92
2022/01/12 00:18:38;;;;;;;87.60;46.33;;;;;;;-2.78;79.78;103300.49;1779598;80;21042;-92
2022/01/12 00:21:03;;;;;;;63.80;35.00;;;;;;;-2.76;79.72;103305.45;1778895;80;21121;-93
2022/01/12 00:23:33;;;;;;;66.65;35.88;;;;;;;-2.72;79.73;103299.96;1779219;80;21777;-91
2022/01/12 00:26:08;;;;;;;62.00;33.58;;;;;;;-2.71;79.71;103303.07;1778674;80;21097;-90
2022/01/12 00:34:08;;;;;;;73.15;40.12;;;;;;;-2.74;79.62;103300.11;1779402;80;21071;-90
2022/01/12 00:36:35;;;;;;;67.50;35.73;;;;;;;-2.73;79.67;103296.81;1779472;80;22564;-90
2022/01/12 00:39:02;;;;;;;67.00;36.23;;;;;;;-2.74;79.66;103294.95;1779392;80;21065;-90
2022/01/12 00:41:29;;;;;;;77.60;41.88;;;;;;;-2.74;79.64;103301.06;1779633;80;21596;-90
2022/01/12 00:43:58;;;;;;;77.00;40.58;;;;;;;-2.77;79.64;103296.81;1779709;80;21063;-90
2022/01/12 00:46:28;;;;;;;75.83;37.78;;;;;;;-2.80;79.62;103291.66;1779880;80;21130;-91
2022/01/12 00:48:58;;;;;;;71.12;37.53;;;;;;;-2.84;79.62;103287.80;1779920;80;22472;-91
2022/01/12 00:51:37;;;;;;;71.17;36.75;;;;;;;-2.86;79.64;103289.27;1752331;80;21058;-92
2022/01/12 00:54:01;;;;;;;65.60;35.52;;;;;;;-2.90;79.60;103292.60;1777202;80;21129;-90
2022/01/12 00:56:28;;;;;;;60.00;34.63;;;;;;;-2.92;79.63;103295.36;1779447;80;21113;-90
2022/01/12 00:58:57;;;;;;;56.70;31.30;;;;;;;-2.96;79.65;103290.20;1752574;80;21082;-90
2022/01/12 01:01:23;;;;;;;84.95;42.00;;;;;;;-3.00;79.65;103288.92;1779368;80;21800;-90
2022/01/12 01:03:50;;;;;;;64.07;34.50;;;;;;;-3.01;79.70;103296.08;1779318;80;21069;-92
2022/01/12 01:06:19;;;;;;;63.85;37.35;;;;;;;-3.13;79.75;103277.50;1779540;80;21086;-92
2022/01/12 01:08:50;;;;;;;49.45;29.05;;;;;;;-3.04;79.85;103293.16;1779660;80;21042;-93
2022/01/12 01:11:16;;;;;;;44.23;26.40;;;;;;;-3.05;79.94;103291.30;1779422;80;21642;-94
2022/01/12 01:13:57;;;;;;;43.00;23.70;;;;;;;-3.04;79.97;103290.58;1779408;80;21806;-92
2022/01/12 01:16:25;;;;;;;39.90;23.00;;;;;;;-3.04;79.93;103294.79;1777589;80;21612;-92
2022/01/12 01:26:36;;;;;;;70.00;42.30;;;;;;;-3.11;79.88;103291.86;1779348;80;21820;-90
2022/01/12 01:29:08;;;;;;;64.12;38.85;;;;;;;-3.14;79.93;103296.25;1751725;80;21074;-91
2022/01/12 01:31:35;;;;;;;56.10;33.50;;;;;;;-3.11;80.05;103294.44;1779113;80;21063;-90
2022/01/12 01:34:13;;;;;;;42.62;27.45;;;;;;;-3.11;80.09;103288.00;1779358;80;21843;-90
2022/01/12 01:36:48;;;;;;;34.03;23.18;;;;;;;-3.10;80.13;103282.09;1777799;80;21082;-90
2022/01/12 01:39:19;;;;;;;37.50;22.40;;;;;;;-3.09;80.09;103292.96;1752172;80;21544;-90
2022/01/12 01:41:55;;;;;;;34.08;22.58;;;;;;;-3.09;80.06;103299.78;1751954;80;22053;-90
2022/01/12 01:55:13;;;;;;;30.60;18.73;;;;;;;-3.09;80.08;103278.79;1779360;80;21066;-91
2022/01/12 01:57:39;;;;;;;32.88;18.40;;;;;;;-3.10;80.05;103270.49;1778942;80;21122;-91
2022/01/12 02:00:14;;;;;;;31.02;19.52;;;;;;;-3.11;80.08;103272.53;1778832;80;21068;-90
2022/01/12 02:02:44;;;;;;;33.58;20.65;;;;;;;-3.12;80.09;103273.25;1752359;80;21059;-91
2022/01/12 02:05:10;;;;;;;35.48;19.62;;;;;;;-3.17;80.15;103261.13;1779620;80;21800;-91
2022/01/12 02:07:37;;;;;;;31.75;20.60;;;;;;;-3.10;80.18;103268.30;1782315;80;21101;-90
2022/01/12 02:10:07;;;;;;;32.35;19.62;;;;;;;-3.09;80.25;103264.63;1731039;82;21097;-91
2022/01/12 02:12:36;;;;;;;35.23;19.55;;;;;;;-3.04;80.28;103265.16;1728495;81;21062;-92
2022/01/12 02:15:03;;;;;;;29.12;18.77;;;;;;;-3.00;80.32;103261.86;1789354;80;21709;-92
2022/01/12 02:17:38;;;;;;;32.17;17.92;;;;;;;-2.98;80.22;103255.23;1674180;82;21054;-91
2022/01/12 02:36:32;;;;;;;30.00;16.95;;;;;;;-2.87;79.90;103242.69;1780378;79;22228;-91
2022/01/12 02:41:40;;;;;;;27.30;17.05;;;;;;;-2.86;79.89;103238.09;1794797;79;21049;-92
2022/01/12 02:54:53;;;;;;;28.92;17.42;;;;;;;-2.60;79.99;103248.92;1794749;79;21062;-90
2022/01/12 02:57:20;;;;;;;28.55;17.37;;;;;;;-2.56;79.97;103238.22;1760627;79;21066;-89
2022/01/12 03:00:05;;;;;;;31.12;17.55;;;;;;;-2.51;79.80;103240.07;1794054;79;21120;-89
2022/01/12 03:02:34;;;;;;;31.17;18.95;;;;;;;-2.47;79.80;103238.02;1793256;79;21061;-90
2022/01/12 03:05:22;;;;;;;33.73;19.92;;;;;;;-2.43;79.74;103234.14;1782982;80;21058;-90
2022/01/12 03:07:31;;;;;;;32.15;19.25;;;;;;;-2.41;79.72;103240.02;1750342;80;21048;-91
2022/01/12 03:09:57;;;;;;;45.20;24.90;;;;;;;-2.36;79.76;103238.90;1738794;82;21916;-92
2022/01/12 03:12:23;;;;;;;41.55;25.50;;;;;;;-2.30;79.71;103240.37;1739635;82;21125;-93
2022/01/12 03:14:52;;;;;;;59.60;31.23;;;;;;;-2.24;79.67;103241.98;1712138;82;21054;-92
2022/01/12 03:17:20;;;;;;;68.50;37.03;;;;;;;-2.23;79.54;103236.09;1739761;82;21765;-92
2022/01/12 03:19:50;;;;;;;62.48;35.88;;;;;;;-2.23;79.42;103230.03;1758959;81;21099;-92
2022/01/12 03:22:18;;;;;;;65.17;36.80;;;;;;;-2.22;79.37;103229.27;1758791;80;21809;-92
2022/01/12 03:24:45;;;;;;;60.23;33.55;;;;;;;-2.24;79.26;103232.95;1758605;81;21576;-91
2022/01/12 03:27:14;;;;;;;57.85;33.55;;;;;;;-2.23;79.25;103234.80;1739659;82;21042;-92
2022/01/12 03:29:44;;;;;;;56.08;33.48;;;;;;;-2.24;79.14;103235.53;1718477;81;21067;-91
2022/01/12 03:32:13;;;;;;;62.60;35.73;;;;;;;-2.22;79.20;103234.42;1739671;82;21082;-92
2022/01/12 03:34:42;;;;;;;65.10;36.03;;;;;;;-2.21;79.11;103233.70;1739665;82;21801;-91
2022/01/12 03:37:38;;;;;;;68.05;38.42;;;;;;;-2.21;79.07;103226.87;1739384;82;21085;-92
2022/01/12 03:39:45;;;;;;;61.30;35.98;;;;;;;-2.18;79.07;103227.23;1735265;82;21553;-92
2022/01/12 03:42:14;;;;;;;67.70;38.65;;;;;;;-2.16;79.07;103226.09;1739387;82;21520;-92
2022/01/12 03:44:47;;;;;;;63.75;36.08;;;;;;;-2.13;78.98;103235.88;1758959;80;21066;-92
2022/01/12 03:47:17;;;;;;;67.03;38.85;;;;;;;-2.15;78.84;103237.89;1758677;80;21763;-92
2022/01/12 03:49:43;;;;;;;82.17;45.25;;;;;;;-2.19;78.68;103237.38;1744767;81;21129;-92
2022/01/12 03:52:10;;;;;;;73.40;40.90;;;;;;;-2.23;78.64;103232.61;1759216;81;21038;-93
2022/01/12 03:54:40;;;;;;;83.72;44.63;;;;;;;-2.24;78.66;103232.04;1758911;81;21052;-92
2022/01/12 03:57:10;;;;;;;75.32;41.10;;;;;;;-2.27;78.62;103223.93;1759138;81;21070;-91
2022/01/12 03:59:35;;;;;;;69.10;40.08;;;;;;;-2.27;78.67;103222.64;1758897;81;22054;-89
2022/01/12 04:02:03;;;;;;;77.50;43.48;;;;;;;-2.28;78.62;103217.86;1743365;81;38512;-89
2022/01/12 04:04:36;;;;;;;76.72;43.87;;;;;;;-2.28;78.56;103217.86;1759150;81;21584;-90
2022/01/12 04:09:45;;;;;;;91.90;47.25;;;;;;;-2.26;78.56;103223.20;1789319;79;21101;-93
2022/01/12 04:12:15;;;;;;;80.22;46.77;;;;;;;-2.26;78.49;103229.28;1789234;80;21748;-92
2022/01/12 04:14:40;;;;;;;73.78;43.38;;;;;;;-2.28;78.30;103227.27;1788402;80;21049;-91
2022/01/12 04:17:08;;;;;;;88.10;47.08;;;;;;;-2.33;78.26;103228.01;1788497;80;21081;-92
2022/01/12 04:19:37;;;;;;;79.75;43.68;;;;;;;-2.44;78.19;103219.39;1789364;80;21118;-91
2022/01/12 04:23:16;;;;;;;88.80;46.45;;;;;;;-2.43;78.15;103241.88;1732331;82;21089;-92
2022/01/12 04:24:37;;;;;;;87.72;45.95;;;;;;;-2.46;78.14;103237.29;1758528;81;21989;-91
2022/01/12 04:27:06;;;;;;;81.40;45.45;;;;;;;-2.49;78.14;103229.18;1789898;80;21073;-92
2022/01/12 04:29:35;;;;;;;81.85;44.45;;;;;;;-2.52;78.17;103223.66;1732883;82;21026;-93
2022/01/12 04:32:01;;;;;;;77.53;43.60;;;;;;;-2.52;78.22;103208.56;1732835;81;21077;-92
2022/01/12 04:34:33;;;;;;;91.02;49.10;;;;;;;-2.52;78.22;103208.18;1760261;80;21517;-91
2022/01/12 04:36:58;;;;;;;82.62;45.40;;;;;;;-2.52;78.20;103211.14;1750120;81;21742;-90
2022/01/12 04:39:25;;;;;;;84.75;45.60;;;;;;;-2.52;78.21;103205.98;1731418;82;21109;-90
2022/01/12 04:41:52;;;;;;;96.55;49.23;;;;;;;-2.52;78.24;103215.91;1789816;80;21128;-88
2022/01/12 04:44:19;;;;;;;90.07;47.03;;;;;;;-2.50;78.33;103210.95;1761398;80;21148;-89
2022/01/12 04:47:04;;;;;;;81.10;43.20;;;;;;;-2.50;78.29;103210.56;1790918;80;21063;-89
2022/01/12 04:49:47;;;;;;;86.55;48.75;;;;;;;-2.48;78.31;103209.46;1787764;80;21946;-88
2022/01/12 04:51:54;;;;;;;92.17;51.23;;;;;;;-2.48;78.14;103206.50;1785242;80;21264;-88
2022/01/12 04:54:20;;;;;;;94.62;49.80;;;;;;;-2.49;78.08;103211.51;1790219;80;21089;-89
2022/01/12 04:56:47;;;;;;;89.80;51.53;;;;;;;-2.52;77.86;103211.14;1789681;80;21439;-81
2022/01/12 04:59:14;;;;;;;89.90;51.68;;;;;;;-2.55;77.88;103214.29;1789416;80;21062;-80
2022/01/12 05:01:52;;;;;;;96.12;52.08;;;;;;;-2.58;77.84;103215.20;1788839;80;21077;-80
2022/01/12 05:07:25;;;;;;;92.50;53.92;;;;;;;-2.58;77.94;103223.85;1789370;80;21109;-79
2022/01/12 05:09:49;;;;;;;91.28;53.00;;;;;;;-2.55;77.92;103217.78;1766484;80;21076;-78
2022/01/12 05:15:24;;;;;;;93.82;49.93;;;;;;;-2.54;77.82;103221.27;1682376;84;22511;-80
2022/01/12 05:17:44;;;;;;;92.22;48.80;;;;;;;-2.55;77.76;103220.36;1687496;84;21089;-80
2022/01/12 05:20:11;;;;;;;85.65;46.92;;;;;;;-2.51;77.82;103232.33;1671465;85;21098;-80
2022/01/12 05:22:38;;;;;;;86.35;48.00;;;;;;;-2.52;77.71;103233.97;1671937;85;21073;-75
2022/01/12 05:25:10;;;;;;;88.07;47.03;;;;;;;-2.52;77.72;103233.97;1669652;84;21202;-78
2022/01/12 05:27:36;;;;;;;85.57;46.60;;;;;;;-2.50;77.75;103230.28;1655300;86;22663;-79
2022/01/12 05:30:06;;;;;;;82.33;45.60;;;;;;;-2.50;77.72;103209.27;1655705;84;21103;-79
2022/01/12 05:32:34;;;;;;;79.70;43.48;;;;;;;-2.49;77.65;103208.55;1680447;84;21087;-79
2022/01/12 05:35:04;;;;;;;79.25;43.20;;;;;;;-2.49;77.65;103199.91;1669395;84;21447;-79
2022/01/12 05:37:34;;;;;;;79.47;44.40;;;;;;;-2.50;77.62;103206.70;1693816;83;21575;-77
2022/01/12 05:40:05;;;;;;;78.35;42.30;;;;;;;-2.47;77.63;103225.50;1669058;84;21580;-85
2022/01/12 05:42:32;;;;;;;76.05;40.40;;;;;;;-2.48;77.63;103225.84;1694606;84;21194;-81
2022/01/12 05:44:59;;;;;;;76.28;41.30;;;;;;;-2.50;77.52;103222.17;1671393;84;21080;-81
2022/01/12 05:49:33;;;;;;;72.08;38.48;;;;;;;-2.49;77.55;103216.28;1671902;84;21108;-81
2022/01/12 05:50:01;;;;;;;74.70;39.48;;;;;;;-2.48;77.54;103198.77;1645884;85;21082;-81
2022/01/12 05:52:28;;;;;;;74.80;39.92;;;;;;;-2.48;77.58;103194.89;1671746;85;21710;-78
2022/01/12 05:54:56;;;;;;;77.95;41.00;;;;;;;-2.43;77.63;103193.78;1671341;85;21201;-78
2022/01/12 05:57:25;;;;;;;80.32;41.33;;;;;;;-2.41;77.52;103198.75;1672577;84;21693;-81
2022/01/12 05:59:52;;;;;;;82.33;41.05;;;;;;;-2.40;77.47;103195.44;1671186;85;21069;-80
2022/01/12 06:02:18;;;;;;;84.17;39.65;;;;;;;-2.35;77.60;103193.38;1671289;84;21100;-80
2022/01/12 06:04:47;;;;;;;89.13;44.15;;;;;;;-2.32;77.54;103190.26;1671091;84;21871;-79
2022/01/12 06:07:15;;;;;;;85.62;40.88;;;;;;;-2.31;77.45;103192.08;1670985;84;21097;-81
2022/01/12 06:09:45;;;;;;;79.95;41.30;;;;;;;-2.32;77.44;103192.84;1671128;84;21112;-80
2022/01/12 06:12:17;;;;;;;79.67;41.23;;;;;;;-2.30;77.46;103189.68;1693038;84;21691;-81
2022/01/12 06:14:42;;;;;;;79.60;40.67;;;;;;;-2.29;77.45;103187.66;1674857;84;21095;-80
2022/01/12 06:17:13;;;;;;;79.17;39.65;;;;;;;-2.42;77.42;103165.03;1683347;84;21329;-81
2022/01/12 06:19:41;;;;;;;77.72;39.38;;;;;;;-2.26;77.40;103185.42;1649096;86;21844;-80
2022/01/12 06:22:07;;;;;;;73.85;37.63;;;;;;;-2.25;77.41;103182.11;1658911;85;21106;-81
2022/01/12 06:24:34;;;;;;;76.47;40.80;;;;;;;-2.24;77.41;103180.06;1683573;85;21315;-81
2022/01/12 06:27:01;;;;;;;76.95;39.73;;;;;;;-2.26;77.30;103169.94;1658841;86;21106;-81
2022/01/12 06:29:51;;;;;;;76.92;38.33;;;;;;;-2.27;77.34;103169.41;1682680;85;21150;-81
2022/01/12 06:32:09;;;;;;;75.40;39.83;;;;;;;-2.22;77.50;103169.55;1681081;83;21076;-80
2022/01/12 06:34:36;;;;;;;78.15;40.25;;;;;;;-2.20;77.44;103167.14;1663321;85;21576;-81
2022/01/12 06:37:03;;;;;;;69.90;38.05;;;;;;;-2.20;77.41;103164.56;1683093;85;21099;-80
2022/01/12 06:39:32;;;;;;;79.45;39.95;;;;;;;-2.20;77.36;103165.86;1671515;85;21071;-80
2022/01/12 06:42:03;;;;;;;78.33;38.38;;;;;;;-2.20;77.43;103160.70;1683389;85;21604;-81
2022/01/12 06:44:30;;;;;;;70.25;38.02;;;;;;;-2.20;77.41;103151.28;1634108;86;21126;-81
2022/01/12 06:47:02;;;;;;;73.52;37.08;;;;;;;-2.21;77.37;103149.47;1682730;84;21120;-82
2022/01/12 06:49:25;;;;;;;78.55;39.92;;;;;;;-2.23;77.40;103148.37;1682807;85;21087;-82
2022/01/12 06:51:53;;;;;;;75.83;39.13;;;;;;;-2.21;77.44;103155.01;1682778;85;21083;-81
2022/01/12 06:54:22;;;;;;;65.20;36.28;;;;;;;-2.21;77.52;103150.75;1683000;85;21791;-81
2022/01/12 06:56:48;;;;;;;66.60;36.98;;;;;;;-2.18;77.50;103139.51;1683038;85;21705;-81
2022/01/12 06:59:15;;;;;;;74.87;39.30;;;;;;;-2.18;77.48;103133.06;1683642;85;21084;-81
2022/01/12 07:01:44;;;;;;;77.70;39.83;;;;;;;-2.17;77.51;103139.13;1683716;84;21080;-81
2022/01/12 07:04:10;;;;;;;79.32;40.45;;;;;;;-2.13;77.62;103142.98;1683646;84;21057;-81
2022/01/12 07:06:37;;;;;;;76.12;41.73;;;;;;;-2.11;77.59;103136.33;1658516;86;21828;-82
2022/01/12 07:09:05;;;;;;;80.85;41.23;;;;;;;-2.11;77.50;103132.46;1656754;85;21077;-81
2022/01/12 07:11:32;;;;;;;77.15;38.95;;;;;;;-2.08;77.56;103126.34;1658475;86;21101;-81
2022/01/12 07:13:59;;;;;;;84.87;45.03;;;;;;;-2.05;77.61;103118.58;1682787;84;21630;-82
2022/01/12 07:16:26;;;;;;;82.50;45.15;;;;;;;-2.01;77.58;103122.08;1658634;86;21078;-81
2022/01/12 07:18:52;;;;;;;88.37;49.58;;;;;;;-1.98;77.60;103129.23;1683617;84;21952;-81
2022/01/12 07:21:19;;;;;;;75.40;41.73;;;;;;;-1.94;77.65;103130.12;1683987;85;21024;-82
2022/01/12 07:23:54;;;;;;;74.65;43.02;;;;;;;-1.88;77.63;103120.87;1686143;84;21528;-81
2022/01/12 07:26:18;;;;;;;65.50;37.98;;;;;;;-1.85;77.63;103124.72;1682389;84;20977;-81
2022/01/12 07:28:44;;;;;;;68.52;38.33;;;;;;;-1.81;77.60;103116.56;1663064;85;21605;-81
2022/01/12 07:31:11;;;;;;;66.85;35.68;;;;;;;-1.77;77.54;103119.13;1686654;85;21748;-80
2022/01/12 07:33:38;;;;;;;72.45;39.95;;;;;;;-1.72;77.61;103120.95;1686738;84;21069;-80
2022/01/12 07:36:05;;;;;;;69.77;36.95;;;;;;;-1.66;77.58;103119.95;1659270;86;21110;-80
2022/01/12 07:38:32;;;;;;;67.85;37.85;;;;;;;-1.63;77.50;103124.19;1683528;83;21089;-80
2022/01/12 07:41:00;;;;;;;68.97;40.15;;;;;;;-1.62;77.39;103122.13;1638522;86;21106;-81
2022/01/12 07:43:27;;;;;;;72.85;40.08;;;;;;;-1.59;77.43;103121.19;1683104;84;21783;-80
2022/01/12 07:45:56;;;;;;;68.78;41.68;;;;;;;-1.54;77.43;103124.66;1658569;86;21215;-80
2022/01/12 07:48:25;;;;;;;66.05;35.90;;;;;;;-1.52;77.30;103129.61;1683393;84;21635;-80
2022/01/12 07:50:51;;;;;;;66.65;37.30;;;;;;;-1.50;77.30;103119.08;1658597;86;21090;-80
2022/01/12 07:53:18;;;;;;;71.30;37.35;;;;;;;-1.46;77.34;103127.36;1683134;85;21555;-80
2022/01/12 07:55:45;;;;;;;73.20;38.60;;;;;;;-1.41;77.28;103133.97;1658519;86;21773;-80
2022/01/12 07:58:13;;;;;;;67.03;36.05;;;;;;;-1.38;77.23;103127.83;1682845;83;21093;-80
2022/01/12 08:00:45;;;;;;;65.78;34.40;;;;;;;-1.33;77.21;103119.66;1682424;85;21060;-80
2022/01/12 08:03:12;;;;;;;64.75;36.05;;;;;;;-1.29;77.17;103124.06;1685934;85;21072;-81
2022/01/12 08:05:39;;;;;;;70.87;34.95;;;;;;;-1.22;77.18;103119.18;1658267;86;21093;-81
2022/01/12 08:08:07;;;;;;;63.83;35.70;;;;;;;-1.15;77.22;103123.38;1656348;85;21093;-81
2022/01/12 08:10:34;;;;;;;66.28;36.65;;;;;;;-1.07;77.19;103119.61;1658272;86;21141;-81
2022/01/12 08:13:01;;;;;;;65.03;36.95;;;;;;;-1.05;76.93;103115.52;1682791;85;21096;-81
2022/01/12 08:15:28;;;;;;;65.70;37.28;;;;;;;-1.04;77.03;103104.80;1634089;86;21206;-81
2022/01/12 08:17:55;;;;;;;72.72;37.00;;;;;;;-0.99;76.92;103109.72;1659362;86;21681;-81
2022/01/12 08:20:25;;;;;;;76.53;38.50;;;;;;;-0.92;76.98;103116.48;1647352;85;21783;-81
2022/01/12 08:22:50;;;;;;;74.27;39.60;;;;;;;-0.82;77.07;103129.66;1659330;86;21094;-80
2022/01/12 08:25:17;;;;;;;75.22;39.92;;;;;;;-0.74;76.93;103136.05;1647260;87;21184;-80
2022/01/12 08:27:44;;;;;;;81.70;44.85;;;;;;;-0.67;76.83;103129.50;1659641;86;22406;-81
2022/01/12 08:30:20;;;;;;;84.32;42.93;;;;;;;-0.62;76.75;103130.54;1659812;86;21097;-81
2022/01/12 08:32:48;;;;;;;80.35;43.30;;;;;;;-0.55;76.66;103128.60;1659671;86;21804;-82
2022/01/12 08:35:15;;;;;;;72.42;39.50;;;;;;;-0.53;76.55;103140.03;1659665;86;21165;-81
2022/01/12 08:37:44;;;;;;;70.35;37.95;;;;;;;-0.52;76.39;103140.20;1660297;86;21137;-80
2022/01/12 08:40:15;;;;;;;71.90;39.13;;;;;;;-0.55;76.23;103140.25;1659420;86;21751;-80
2022/01/12 08:42:44;;;;;;;72.53;38.80;;;;;;;-0.54;76.22;103136.92;1659506;86;21074;-81
2022/01/12 08:45:12;;;;;;;69.77;40.33;;;;;;;-0.53;76.25;103138.73;1659107;86;21133;-81
2022/01/12 08:47:39;;;;;;;69.82;39.03;;;;;;;-0.48;76.22;103146.62;1659595;86;21098;-81
2022/01/12 08:50:06;;;;;;;72.65;40.92;;;;;;;-0.45;76.18;103141.77;1659525;86;21544;-81
2022/01/12 08:52:33;;;;;;;71.30;39.25;;;;;;;-0.40;76.13;103139.30;1659762;86;21085;-81
2022/01/12 08:55:00;;;;;;;64.40;36.45;;;;;;;-0.38;76.17;103122.27;1660103;86;21105;-81
2022/01/12 08:57:33;;;;;;;74.92;41.00;;;;;;;-0.29;76.26;103116.78;1660177;85;21852;-81
2022/01/12 09:00:00;;;;;;;67.17;38.40;;;;;;;-0.17;76.27;103121.43;1659783;86;21102;-81
2022/01/12 09:02:27;;;;;;;70.40;38.88;;;;;;;-0.11;76.14;103115.25;1659702;86;21121;-81
2022/01/12 09:04:54;;;;;;;70.00;40.35;;;;;;;-0.02;76.07;103113.98;1659682;86;21109;-81
2022/01/12 09:07:21;;;;;;;85.30;45.95;;;;;;;0.05;76.02;103123.33;1659806;86;21343;-81
2022/01/12 09:09:54;;;;;;;72.50;41.13;;;;;;;0.07;75.85;103121.44;1659670;86;21765;-81
2022/01/12 09:12:22;;;;;;;70.92;41.42;;;;;;;0.12;75.80;103120.25;1659366;86;21101;-81
2022/01/12 09:14:52;;;;;;;70.05;38.90;;;;;;;0.08;75.60;103114.22;1640352;85;21092;-81
2022/01/12 09:17:24;;;;;;;71.25;39.05;;;;;;;0.16;75.49;103129.27;1675559;85;21129;-82
2022/01/12 09:19:54;;;;;;;72.70;40.33;;;;;;;0.23;75.60;103125.66;1676592;85;21191;-81
2022/01/12 09:22:20;;;;;;;78.10;40.85;;;;;;;0.30;75.60;103122.92;1676767;85;21791;-80
2022/01/12 09:24:49;;;;;;;73.62;41.35;;;;;;;0.35;75.45;103119.16;1676087;85;21089;-79
2022/01/12 09:27:16;;;;;;;70.92;41.73;;;;;;;0.39;75.39;103127.78;1676057;85;21041;-81
2022/01/12 09:29:46;;;;;;;74.35;41.48;;;;;;;0.42;75.31;103120.72;1676155;85;21610;-81
2022/01/12 09:32:13;;;;;;;70.55;41.13;;;;;;;0.48;75.31;103117.08;1676446;85;21113;-81
2022/01/12 09:34:39;;;;;;;69.85;39.50;;;;;;;0.55;75.21;103114.75;1676857;85;21776;-81
2022/01/12 09:37:06;;;;;;;74.92;43.65;;;;;;;0.56;75.06;103129.17;1676044;85;21061;-81
2022/01/12 09:39:34;;;;;;;85.55;47.05;;;;;;;0.62;75.06;103126.66;1648435;85;21761;-81
2022/01/12 09:42:01;;;;;;;74.17;44.30;;;;;;;0.67;74.91;103105.63;1676581;85;21157;-81
2022/01/12 09:44:37;;;;;;;84.05;52.65;;;;;;;0.74;74.88;103091.64;1676296;85;21081;-80
2022/01/12 09:47:05;;;;;;;83.42;49.27;;;;;;;0.79;74.79;103087.84;1676128;85;21785;-81
2022/01/12 09:49:32;;;;;;;83.37;48.60;;;;;;;0.79;74.57;103077.48;1675985;85;21066;-80
2022/01/12 09:52:00;;;;;;;97.17;63.87;;;;;;;0.86;74.73;103066.03;1675384;85;21089;-81
2022/01/12 09:54:28;;;;;;;90.62;57.30;;;;;;;0.92;74.61;103067.59;1676124;85;21069;-81
2022/01/12 09:56:57;;;;;;;78.10;47.73;;;;;;;0.91;74.23;103063.14;1676506;85;21364;-81
2022/01/12 09:59:23;;;;;;;80.40;51.00;;;;;;;0.94;74.42;103075.52;1676208;85;21812;-81
2022/01/12 10:01:54;;;;;;;88.95;59.45;;;;;;;1.02;74.45;103065.92;1675980;85;21105;-81
2022/01/12 10:04:31;;;;;;;85.28;53.38;;;;;;;1.11;74.34;103062.56;1675525;85;21240;-81
2022/01/12 10:07:03;;;;;;;;;;;;;;;1.15;74.27;103063.80;1678429;85;21443;-81
2022/01/12 10:09:44;;;;;;;79.92;49.10;;;;;;;1.20;74.14;103050.88;1676383;85;20145;-81
2022/01/12 10:12:17;;;;;;;76.12;43.05;;;;;;;1.27;74.13;103045.55;1676051;85;21710;-81
2022/01/12 10:14:55;;;;;;;85.47;47.38;;;;;;;1.29;73.95;103043.11;1672302;84;21105;-81
2022/01/12 10:17:43;;;;;;;80.22;50.55;;;;;;;1.29;73.85;103035.32;1683014;85;21073;-81
2022/01/12 10:20:18;;;;;;;74.77;45.17;;;;;;;1.30;73.90;103030.69;1670900;84;21056;-81
2022/01/12 10:22:58;;;;;;;81.42;46.30;;;;;;;1.39;73.92;103024.16;1685901;85;21073;-81
2022/01/12 10:25:26;;;;;;;82.62;45.33;;;;;;;1.49;73.84;103026.53;1658479;86;22589;-81
2022/01/12 10:27:52;;;;;;;74.62;45.15;;;;;;;1.55;73.85;103028.81;1683227;85;21591;-81
2022/01/12 10:30:27;;;;;;;78.67;45.50;;;;;;;1.57;73.52;103024.68;1683120;84;21112;-81
2022/01/12 10:33:07;;;;;;;82.30;47.57;;;;;;;1.54;73.43;103025.30;1686815;85;21077;-81
2022/01/12 10:35:37;;;;;;;80.47;47.20;;;;;;;1.51;73.34;103027.59;1658654;86;21662;-81
2022/01/12 10:38:15;;;;;;;79.75;46.42;;;;;;;1.51;73.33;103020.19;1683034;85;22655;-81
2022/01/12 10:40:57;;;;;;;81.15;46.42;;;;;;;1.49;73.25;103025.23;1682961;84;21724;-81
2022/01/12 10:43:36;;;;;;;81.57;46.60;;;;;;;1.49;73.26;103026.92;1685877;84;21081;-81
2022/01/12 10:46:07;;;;;;;78.65;44.77;;;;;;;1.50;73.27;103020.94;1658550;86;21667;-81
2022/01/12 10:48:52;;;;;;;83.47;47.95;;;;;;;1.56;73.39;103013.78;1682674;84;21131;-81
2022/01/12 10:51:23;;;;;;;81.87;48.38;;;;;;;1.64;73.31;103010.63;1682715;84;23392;-81
2022/01/12 10:53:50;;;;;;;88.42;48.75;;;;;;;1.73;73.34;103007.64;1681783;83;21095;-81
2022/01/12 10:56:21;;;;;;;85.38;47.15;;;;;;;1.83;73.30;103013.33;1685446;84;21068;-81
2022/01/12 10:58:51;;;;;;;84.00;48.75;;;;;;;1.83;73.16;102999.05;1658367;86;21817;-82
2022/01/12 11:01:20;;;;;;;84.70;48.98;;;;;;;1.88;73.13;102996.52;1682927;85;21065;-81
2022/01/12 11:03:47;;;;;;;85.87;48.48;;;;;;;1.87;72.93;102981.69;1683275;84;22349;-81
2022/01/12 11:06:17;;;;;;;92.30;50.95;;;;;;;1.81;72.75;102982.02;1685945;85;21053;-81
2022/01/12 11:08:47;;;;;;;86.05;50.90;;;;;;;1.77;72.85;102977.30;1658583;86;21620;-81
2022/01/12 11:11:16;;;;;;;88.33;50.35;;;;;;;1.79;72.95;102974.86;1658272;85;21121;-81
2022/01/12 11:13:45;;;;;;;86.75;51.25;;;;;;;1.80;72.95;102967.19;1640096;86;21597;-82
2022/01/12 11:16:15;;;;;;;83.03;47.93;;;;;;;1.85;72.95;102965.05;1689176;84;21804;-81
2022/01/12 11:18:40;;;;;;;86.17;48.87;;;;;;;1.86;72.89;102968.16;1689550;84;21040;-81
2022/01/12 11:21:12;;;;;;;86.72;49.60;;;;;;;1.86;72.85;102970.39;1690595;84;21090;-82
2022/01/12 11:23:41;;;;;;;80.75;46.83;;;;;;;1.87;72.81;102961.81;1689696;84;21534;-83
2022/01/12 11:26:22;;;;;;;90.35;54.08;;;;;;;1.88;72.79;102964.95;1688805;84;21309;-81
2022/01/12 11:28:53;;;;;;;91.78;53.33;;;;;;;1.91;72.80;102961.33;1690363;84;21905;-80
2022/01/12 11:31:25;;;;;;;102.02;58.38;;;;;;;1.90;72.76;102962.13;1688304;84;21705;-81
2022/01/12 11:33:52;;;;;;;91.35;52.45;;;;;;;1.91;72.73;102956.14;1669985;85;21126;-81
2022/01/12 11:36:25;;;;;;;105.07;60.78;;;;;;;1.93;72.66;102945.91;1690514;84;21065;-81
2022/01/12 11:39:02;;;;;;;84.75;52.78;;;;;;;1.91;72.61;102947.05;1690614;84;21045;-81
2022/01/12 11:41:34;;;;;;;93.30;52.60;;;;;;;1.92;72.57;102951.88;1688167;84;21776;-81
2022/01/12 11:44:20;;;;;;;85.45;49.50;;;;;;;1.86;72.45;102941.83;1670557;85;21058;-81
2022/01/12 11:46:51;;;;;;;90.83;53.70;;;;;;;1.82;72.48;102930.98;1690183;84;21093;-81
2022/01/12 11:49:40;;;;;;;91.92;52.73;;;;;;;1.78;72.48;102930.17;1689439;83;21035;-81
2022/01/12 11:52:26;;;;;;;93.80;53.35;;;;;;;1.67;72.37;102929.13;1690533;84;21067;-81
2022/01/12 11:54:53;;;;;;;90.00;53.70;;;;;;;1.59;72.46;102925.80;1689880;84;22701;-81
2022/01/12 11:57:36;;;;;;;99.60;55.88;;;;;;;1.57;72.57;102929.94;1688840;84;21050;-81
2022/01/12 12:00:16;;;;;;;94.72;52.30;;;;;;;1.57;72.63;102932.92;1692253;84;21148;-81
2022/01/12 12:02:48;;;;;;;90.67;53.33;;;;;;;1.59;72.66;102936.58;1689739;84;21081;-81
2022/01/12 12:05:18;;;;;;;93.65;54.25;;;;;;;1.58;72.62;102928.24;1693032;84;21080;-80
2022/01/12 12:07:52;;;;;;;91.97;54.08;;;;;;;1.64;72.82;102929.77;1692884;84;22594;-81
2022/01/12 12:10:23;;;;;;;102.42;55.88;;;;;;;1.66;72.72;102932.52;1692851;84;21602;-81
2022/01/12 12:12:53;;;;;;;96.67;53.48;;;;;;;1.73;72.85;102935.84;1693311;84;21571;-81
2022/01/12 12:15:21;;;;;;;85.55;51.83;;;;;;;1.84;72.96;102934.63;1692102;84;21050;-82
2022/01/12 12:17:50;;;;;;;90.53;49.73;;;;;;;2.00;73.03;102929.23;1656565;84;21120;-81
2022/01/12 12:20:20;;;;;;;85.65;50.15;;;;;;;2.14;73.03;102931.06;1690345;84;21825;-82
2022/01/12 12:22:48;;;;;;;91.12;51.35;;;;;;;2.26;72.94;102937.78;1690668;84;21065;-82
2022/01/12 12:25:21;;;;;;;86.67;50.95;;;;;;;2.34;72.70;102938.50;1690220;84;22207;-81